createdAt,value
2023-08-21T00:00:22.225Z,21.25
2023-08-21T00:03:27.712Z,21.33
2023-08-21T00:06:31.447Z,21.00
2023-08-21T00:09:34.747Z,17.50
2023-08-21T00:12:38.574Z,19.75
2023-08-21T00:15:42.141Z,22.00
2023-08-21T00:18:46.869Z,20.75
2023-08-21T00:21:50.441Z,20.33
2023-08-21T00:24:56.455Z,20.25
2023-08-21T00:28:00.038Z,20.00
2023-08-21T00:31:04.526Z,20.00
2023-08-21T00:34:09.391Z,18.00
2023-08-21T00:37:12.901Z,18.00
2023-08-21T00:40:16.738Z,22.33
2023-08-21T00:43:20.553Z,20.00
2023-08-21T00:46:25.638Z,12.25
2023-08-21T00:49:31.571Z,18.50
2023-08-21T00:52:36.291Z,17.00
2023-08-21T00:55:40.820Z,21.00
2023-08-21T00:58:45.175Z,18.50
2023-08-21T01:01:48.769Z,21.25
2023-08-21T01:04:53.588Z,22.50
2023-08-21T01:08:03.386Z,20.33
2023-08-21T01:11:15.265Z,24.00
2023-08-21T01:14:28.304Z,28.00
2023-08-21T01:17:32.760Z,28.00
2023-08-21T01:20:37.954Z,27.67
2023-08-21T01:23:44.638Z,23.33
2023-08-21T01:26:48.074Z,24.33
2023-08-21T01:29:52.394Z,23.00
2023-08-21T01:33:02.687Z,22.00
2023-08-21T01:36:07.349Z,25.75
2023-08-21T01:39:12.301Z,24.00
2023-08-21T01:42:15.811Z,27.67
2023-08-21T01:45:19.311Z,28.00
2023-08-21T01:48:22.962Z,26.67
2023-08-21T01:51:26.441Z,24.75
2023-08-21T01:54:31.390Z,26.33
2023-08-21T01:57:35.636Z,28.33
2023-08-21T02:00:39.017Z,24.67
2023-08-21T02:03:43.338Z,28.33
2023-08-21T02:06:46.761Z,23.33
2023-08-21T02:09:51.577Z,28.33
2023-08-21T02:12:55.479Z,27.00
2023-08-21T02:15:58.885Z,21.25
2023-08-21T02:19:02.465Z,27.50
2023-08-21T02:22:06.005Z,22.75
2023-08-21T02:25:11.257Z,25.25
2023-08-21T02:28:14.745Z,24.50
2023-08-21T02:31:18.452Z,26.00
2023-08-21T02:34:21.838Z,26.50
2023-08-21T02:37:25.209Z,26.25
2023-08-21T02:40:29.841Z,28.00
2023-08-21T02:43:33.583Z,24.75
2023-08-21T02:46:37.582Z,27.75
2023-08-21T02:49:41.355Z,28.00
2023-08-21T02:52:44.895Z,24.00
2023-08-21T02:55:49.814Z,24.00
2023-08-21T02:58:53.280Z,27.75
2023-08-21T03:01:56.585Z,25.00
2023-08-21T03:05:00.140Z,24.25
2023-08-21T03:08:03.434Z,25.50
2023-08-21T03:11:08.132Z,26.25
2023-08-21T03:14:11.426Z,23.25
2023-08-21T03:17:14.765Z,24.50
2023-08-21T03:20:19.114Z,28.00
2023-08-21T03:23:23.010Z,21.75
2023-08-21T03:26:29.160Z,26.00
2023-08-21T03:29:33.058Z,27.00
2023-08-21T03:32:37.167Z,25.00
2023-08-21T03:35:40.814Z,24.67
2023-08-21T03:38:44.302Z,23.50
2023-08-21T03:41:49.285Z,27.00
2023-08-21T03:44:53.423Z,28.00
2023-08-21T03:47:56.791Z,20.25
2023-08-21T03:51:00.288Z,24.50
2023-08-21T03:54:04.170Z,22.25
2023-08-21T03:57:08.793Z,21.00
2023-08-21T04:00:13.318Z,24.50
2023-08-21T04:03:19.680Z,21.67
2023-08-21T04:06:23.035Z,28.33
2023-08-21T04:09:26.539Z,28.00
2023-08-21T04:12:31.771Z,44.67
2023-08-21T04:15:37.391Z,27.67
2023-08-21T04:18:42.574Z,31.00
2023-08-21T04:21:46.151Z,26.67
2023-08-21T04:24:49.685Z,23.67
2023-08-21T04:27:54.488Z,28.67
2023-08-21T04:30:59.149Z,28.33
2023-08-21T04:34:03.230Z,32.00
2023-08-21T04:38:27.433Z,27.33
2023-08-21T04:41:30.771Z,31.33
2023-08-21T04:46:03.557Z,27.00
2023-08-21T04:49:07.594Z,26.00
2023-08-21T04:52:10.797Z,25.67
2023-08-21T04:55:14.131Z,30.00
2023-08-21T04:58:18.852Z,28.00
2023-08-21T05:01:25.823Z,30.67
2023-08-21T05:04:29.310Z,24.00
2023-08-21T05:07:33.096Z,30.67
2023-08-21T05:10:37.945Z,33.00
2023-08-21T05:13:41.791Z,32.33
2023-08-21T05:16:48.912Z,33.33
2023-08-21T05:19:52.065Z,30.67
2023-08-21T05:22:55.265Z,32.33
2023-08-21T05:25:58.618Z,33.00
2023-08-21T05:29:02.310Z,27.33
2023-08-21T05:32:07.595Z,33.00
2023-08-21T05:35:12.445Z,31.00
2023-08-21T05:38:15.881Z,30.33
2023-08-21T05:41:19.202Z,28.33
2023-08-21T05:44:23.582Z,24.67
2023-08-21T05:47:28.332Z,29.33
2023-08-21T05:50:31.626Z,27.25
2023-08-21T05:53:34.900Z,31.00
2023-08-21T05:56:39.076Z,30.00
2023-08-21T05:59:47.231Z,27.33
2023-08-21T06:02:52.259Z,24.50
2023-08-21T06:06:15.433Z,11.25
2023-08-21T06:09:19.429Z,19.50
2023-08-21T06:12:22.872Z,19.00
2023-08-21T06:15:26.995Z,21.75
2023-08-21T06:19:17.586Z,17.50
2023-08-21T06:22:32.401Z,17.00
2023-08-21T06:25:35.677Z,15.00
2023-08-21T06:28:38.981Z,17.00
2023-08-21T06:31:42.283Z,17.50
2023-08-21T06:34:47.202Z,15.50
2023-08-21T06:37:55.634Z,13.50
2023-08-21T06:40:59.061Z,11.75
2023-08-21T06:44:02.282Z,13.00
2023-08-21T06:47:06.467Z,12.50
2023-08-21T06:50:12.151Z,11.75
2023-08-21T06:53:15.386Z,7.60
2023-08-21T06:56:18.701Z,8.00
2023-08-21T06:59:21.917Z,14.25
2023-08-21T07:02:25.158Z,12.00
2023-08-21T07:05:29.700Z,11.50
2023-08-21T07:08:32.944Z,11.00
2023-08-21T07:11:36.168Z,10.00
2023-08-21T07:14:39.399Z,9.20
2023-08-21T07:17:42.621Z,13.00
2023-08-21T07:20:47.323Z,9.80
2023-08-21T07:23:50.581Z,10.75
2023-08-21T07:26:53.856Z,9.75
2023-08-21T07:29:59.790Z,13.50
2023-08-21T07:33:05.387Z,11.00
2023-08-21T07:36:10.079Z,11.00
2023-08-21T07:39:13.396Z,12.00
2023-08-21T07:42:16.740Z,14.00
2023-08-21T07:45:20.078Z,16.50
2023-08-21T07:48:23.430Z,16.00
2023-08-21T07:51:28.104Z,14.50
2023-08-21T07:54:31.349Z,12.00
2023-08-21T07:57:34.664Z,12.40
2023-08-21T08:00:38.943Z,7.40
2023-08-21T08:03:42.157Z,8.80
2023-08-21T08:06:47.041Z,11.80
2023-08-21T08:09:53.267Z,10.60
2023-08-21T08:12:58.298Z,13.20
2023-08-21T08:16:01.988Z,11.20
2023-08-21T08:19:05.324Z,9.00
2023-08-21T08:22:09.917Z,6.00
2023-08-21T08:25:14.680Z,9.00
2023-08-21T08:28:17.961Z,13.00
2023-08-21T08:31:24.427Z,8.60
2023-08-21T08:34:27.756Z,10.60
2023-08-21T08:37:32.505Z,9.60
2023-08-21T08:40:39.920Z,8.80
2023-08-21T08:43:43.331Z,10.80
2023-08-21T08:46:48.940Z,6.00
2023-08-21T08:49:53.093Z,7.60
2023-08-21T08:53:10.063Z,6.00
2023-08-21T08:56:19.437Z,4.60
2023-08-21T08:59:22.719Z,8.00
2023-08-21T09:02:27.242Z,6.00
2023-08-21T09:05:42.277Z,5.80
2023-08-21T09:08:59.591Z,7.60
2023-08-21T09:12:02.960Z,7.20
2023-08-21T09:15:09.578Z,4.20
2023-08-21T09:18:17.215Z,5.40
2023-08-21T09:21:21.205Z,7.80
2023-08-21T09:24:25.921Z,5.20
2023-08-21T09:27:29.435Z,2.00
2023-08-21T09:30:33.496Z,6.40
2023-08-21T09:33:37.329Z,8.00
2023-08-21T09:36:41.915Z,8.60
2023-08-21T09:39:47.696Z,8.00
2023-08-21T09:53:52.100Z,5.40
2023-08-21T09:56:57.598Z,7.00
2023-08-21T10:00:07.137Z,6.00
2023-08-21T10:03:16.101Z,6.00
2023-08-21T10:06:22.870Z,6.40
2023-08-21T10:09:27.420Z,6.60
2023-08-21T10:12:34.137Z,6.40
2023-08-21T10:25:47.450Z,8.00
2023-08-21T10:28:53.590Z,9.00
2023-08-21T10:32:07.282Z,6.60
2023-08-21T10:35:16.733Z,10.80
2023-08-21T10:38:51.014Z,10.60
2023-08-21T10:41:57.725Z,8.60
2023-08-21T10:45:12.825Z,7.60
2023-08-21T10:48:16.197Z,10.20
2023-08-21T10:51:19.689Z,9.80
2023-08-21T10:54:22.977Z,11.00
2023-08-21T10:57:29.991Z,7.80
2023-08-21T11:00:35.454Z,7.20
2023-08-21T11:03:40.792Z,11.00
2023-08-21T11:06:44.230Z,10.40
2023-08-21T11:09:47.659Z,10.00
2023-08-21T11:12:52.580Z,8.40
2023-08-21T11:16:05.093Z,8.00
2023-08-21T11:19:08.398Z,9.20
2023-08-21T11:22:11.883Z,8.00
2023-08-21T11:25:16.972Z,7.20
2023-08-21T11:28:20.916Z,8.60
2023-08-21T11:31:25.656Z,11.00
2023-08-21T11:34:29.811Z,11.40
2023-08-21T11:37:33.045Z,9.60
2023-08-21T11:40:37.119Z,9.00
2023-08-21T11:43:42.599Z,7.40
2023-08-21T11:46:47.380Z,12.20
2023-08-21T11:49:52.358Z,11.00
2023-08-21T11:52:57.635Z,7.80
2023-08-21T11:56:01.150Z,9.00
2023-08-21T11:59:05.830Z,9.00
2023-08-21T12:02:16.984Z,11.40
2023-08-21T12:05:21.280Z,10.80
2023-08-21T12:08:24.524Z,6.00
2023-08-21T12:11:27.840Z,10.20
2023-08-21T12:14:31.592Z,12.20
2023-08-21T12:17:40.042Z,9.00
2023-08-21T12:20:43.562Z,10.00
2023-08-21T12:23:47.571Z,7.00
2023-08-21T12:26:51.441Z,9.60
2023-08-21T12:29:54.897Z,10.60
2023-08-21T12:33:06.356Z,8.40
2023-08-21T12:36:16.330Z,10.80
2023-08-21T12:39:19.957Z,9.40
2023-08-21T12:42:24.956Z,11.60
2023-08-21T12:45:28.257Z,9.00
2023-08-21T12:48:33.059Z,8.00
2023-08-21T12:51:36.375Z,10.00
2023-08-21T12:54:39.997Z,8.60
2023-08-21T12:57:43.404Z,9.40
2023-08-21T13:00:46.992Z,8.00
2023-08-21T13:03:53.327Z,8.00
2023-08-21T13:06:59.869Z,9.40
2023-08-21T13:10:03.270Z,8.40
2023-08-21T13:13:09.297Z,8.00
2023-08-21T13:16:12.864Z,7.40
2023-08-21T13:19:17.700Z,9.40
2023-08-21T13:22:21.111Z,6.60
2023-08-21T13:25:25.702Z,8.60
2023-08-21T13:29:11.410Z,5.80
2023-08-21T13:32:14.862Z,5.00
2023-08-21T13:35:23.110Z,9.20
2023-08-21T13:38:26.386Z,8.40
2023-08-21T13:41:29.620Z,6.80
2023-08-21T13:44:34.104Z,7.00
2023-08-21T13:47:38.045Z,5.80
2023-08-21T13:50:43.201Z,5.00
2023-08-21T13:53:46.494Z,8.60
2023-08-21T13:56:49.736Z,7.40
2023-08-21T13:59:52.968Z,7.00
2023-08-21T14:02:56.376Z,5.40
2023-08-21T14:06:00.964Z,6.20
2023-08-21T14:09:04.254Z,7.00
2023-08-21T14:12:08.153Z,5.00
2023-08-21T14:15:12.350Z,5.00
2023-08-21T14:18:15.970Z,5.80
2023-08-21T14:21:20.614Z,5.80
2023-08-21T14:24:26.128Z,8.00
2023-08-21T14:27:29.508Z,8.40
2023-08-21T14:30:36.349Z,5.80
2023-08-21T14:33:45.173Z,7.00
2023-08-21T14:36:50.080Z,3.60
2023-08-21T14:39:53.347Z,6.80
2023-08-21T14:42:56.594Z,4.00
2023-08-21T14:46:02.303Z,8.00
2023-08-21T14:49:05.660Z,8.00
2023-08-21T14:52:10.477Z,5.00
2023-08-21T14:55:13.709Z,7.80
2023-08-21T14:58:16.969Z,3.20
2023-08-21T15:01:20.585Z,4.60
2023-08-21T15:04:24.525Z,6.20
2023-08-21T15:07:30.109Z,7.00
2023-08-21T15:10:33.360Z,7.40
2023-08-21T15:13:36.614Z,4.80
2023-08-21T15:16:40.084Z,5.00
2023-08-21T15:19:43.376Z,4.60
2023-08-21T15:22:48.593Z,6.60
2023-08-21T15:25:52.724Z,5.40
2023-08-21T15:28:56.013Z,4.80
2023-08-21T15:31:59.372Z,4.00
2023-08-21T15:35:05.661Z,6.20
2023-08-21T15:38:10.457Z,4.40
2023-08-21T15:41:13.959Z,6.60
2023-08-21T15:44:17.210Z,2.80
2023-08-21T15:47:45.266Z,3.80
2023-08-21T15:50:43.827Z,4.80
2023-08-21T15:53:48.422Z,5.00
2023-08-21T15:56:51.615Z,0.60
2023-08-21T15:59:54.952Z,3.80
2023-08-21T16:02:58.266Z,4.60
2023-08-21T16:06:01.646Z,3.20
2023-08-21T16:09:06.424Z,3.00
2023-08-21T16:12:09.813Z,3.00
2023-08-21T16:15:13.095Z,2.60
2023-08-21T16:18:16.937Z,2.20
2023-08-21T16:21:20.371Z,4.40
2023-08-21T16:24:24.998Z,3.20
2023-08-21T16:27:28.296Z,1.60
2023-08-21T16:30:31.536Z,3.20
2023-08-21T16:33:37.023Z,4.80
2023-08-21T16:36:40.250Z,3.40
2023-08-21T16:39:44.857Z,4.40
2023-08-21T16:42:48.101Z,3.40
2023-08-21T16:45:51.375Z,6.20
2023-08-21T16:48:55.092Z,6.20
2023-08-21T16:51:58.336Z,5.60
2023-08-21T16:55:04.329Z,4.40
2023-08-21T16:58:07.538Z,6.80
2023-08-21T17:01:11.083Z,6.00
2023-08-21T17:04:14.590Z,6.60
2023-08-21T17:07:19.343Z,7.00
2023-08-21T17:15:24.836Z,6.40
2023-08-21T17:18:28.071Z,4.60
2023-08-21T17:21:31.270Z,5.60
2023-08-21T17:24:34.525Z,3.60
2023-08-21T17:27:38.495Z,6.00
2023-08-21T17:30:43.328Z,4.60
2023-08-21T17:33:46.641Z,4.40
2023-08-21T17:36:53.103Z,6.00
2023-08-21T17:39:56.434Z,6.00
2023-08-21T17:42:59.684Z,5.80
2023-08-21T17:46:04.314Z,6.00
2023-08-21T17:49:07.746Z,9.60
2023-08-21T17:52:10.948Z,6.00
2023-08-21T17:55:14.178Z,7.00
2023-08-21T17:58:17.385Z,7.40
2023-08-21T18:01:22.116Z,6.00
2023-08-21T18:04:25.915Z,6.00
2023-08-21T18:07:29.143Z,9.00
2023-08-21T18:10:34.428Z,6.00
2023-08-21T18:13:37.799Z,6.00
2023-08-21T18:16:43.042Z,5.80
2023-08-21T18:19:47.946Z,5.80
2023-08-21T18:22:51.538Z,7.40
2023-08-21T18:25:56.268Z,7.00
2023-08-21T18:29:01.631Z,7.00
2023-08-21T18:32:06.582Z,6.00
2023-08-21T18:35:10.180Z,6.00
2023-08-21T18:38:13.413Z,7.00
2023-08-21T18:41:16.666Z,6.80
2023-08-21T18:44:19.933Z,5.20
2023-08-21T18:47:26.894Z,5.00
2023-08-21T18:50:37.381Z,5.80
2023-08-21T18:53:40.624Z,8.20
2023-08-21T18:56:43.881Z,7.80
2023-08-21T18:59:48.555Z,6.00
2023-08-21T19:02:54.480Z,6.40
2023-08-21T19:06:00.788Z,8.00
2023-08-21T19:09:04.937Z,6.40
2023-08-21T19:12:08.706Z,7.60
2023-08-21T19:15:12.959Z,6.00
2023-08-21T19:18:17.810Z,6.00
2023-08-21T19:21:21.420Z,8.40
2023-08-21T19:24:25.064Z,8.20
2023-08-21T19:27:28.853Z,5.80
2023-08-21T19:30:35.475Z,8.20
2023-08-21T19:33:40.429Z,9.00
2023-08-21T19:36:43.897Z,8.60
2023-08-21T19:39:47.239Z,9.00
2023-08-21T19:42:50.718Z,7.60
2023-08-21T19:45:57.654Z,27.75
2023-08-21T19:49:02.489Z,12.00
2023-08-21T19:52:06.337Z,7.00
2023-08-21T19:55:10.295Z,7.40
2023-08-21T19:58:13.828Z,10.60
2023-08-21T20:01:17.352Z,11.00
2023-08-21T20:04:23.722Z,7.40
2023-08-21T20:07:27.233Z,8.20
2023-08-21T20:10:30.717Z,8.40
2023-08-21T20:13:34.239Z,9.60
2023-08-21T20:16:37.784Z,8.40
2023-08-21T20:19:42.576Z,11.00
2023-08-21T20:22:46.103Z,10.00
2023-08-21T20:25:51.308Z,10.75
2023-08-21T20:28:54.846Z,11.75
2023-08-21T20:31:58.109Z,11.00
2023-08-21T20:35:02.809Z,8.75
2023-08-21T20:38:06.336Z,10.75
2023-08-21T20:41:09.564Z,10.80
2023-08-21T20:44:12.877Z,11.25
2023-08-21T20:47:16.119Z,10.75
2023-08-21T20:50:21.948Z,14.75
2023-08-21T20:53:26.411Z,15.00
2023-08-21T20:56:29.631Z,17.00
2023-08-21T20:59:32.862Z,9.75
2023-08-21T21:02:36.182Z,11.00
2023-08-21T21:05:41.052Z,11.00
2023-08-21T21:08:44.280Z,13.75
2023-08-21T21:11:47.629Z,10.25
2023-08-21T21:14:50.867Z,9.00
2023-08-21T21:17:54.171Z,10.75
2023-08-21T21:20:58.885Z,13.50
2023-08-21T21:24:02.104Z,13.00
2023-08-21T21:27:06.004Z,12.00
2023-08-21T21:30:10.362Z,10.00
2023-08-21T21:33:13.621Z,12.25
2023-08-21T21:36:18.357Z,11.75
2023-08-21T21:39:21.942Z,13.00
2023-08-21T21:42:25.295Z,13.00
2023-08-21T21:45:28.816Z,10.25
2023-08-21T21:48:32.340Z,10.00
2023-08-21T21:51:37.359Z,11.50
2023-08-21T21:54:40.753Z,13.00
2023-08-21T21:57:44.057Z,10.50
2023-08-21T22:00:47.466Z,10.50
2023-08-21T22:03:51.445Z,9.75
2023-08-21T22:06:56.487Z,13.25
2023-08-21T22:09:59.899Z,11.00
2023-08-21T22:13:04.225Z,10.00
2023-08-21T22:16:07.982Z,13.00
2023-08-21T22:39:33.143Z,10.00
2023-08-21T22:42:38.061Z,10.00
2023-08-21T22:45:41.789Z,12.00
2023-08-21T23:17:32.877Z,10.00
2023-08-21T23:20:36.306Z,10.00
2023-08-21T23:23:40.063Z,12.00
2023-08-21T23:26:43.521Z,6.67
2023-08-21T23:29:46.901Z,12.00
